Pagrindinis puslapis
METAR-TAF:

METAR-TAF

Oro uostai :

Torsby, Švedija

platuma: 60-09-17N, ilguma: 12-59-40E, Aukštis: 120 m

Dabartinis oras

Ataskaita buvo paskelbta 20 minutes, ne 10:20 UTC
Vėjas 7 kt iš Pietvakarių, svyruoja nuo Pietų ir Šiaurės Vakarų
Temperatūra 7°C
Drėgmė 70%
Slėgis 990 hPa
Matomumas 10 km arba daugiau

METAR: ESST 181020Z AUTO 22007KT 180V320 9999 SCT028/// OVC094/// 07/02 Q0990

Laikas: 11:40 (10:40 UTC)


TAF: trūkstamas

Orai ataskaitas ir orų prognozės (METAR, TAF).

turimą stotys yra geltonos ir raudonos taškus žemėlapyje.

Perkelti pele per norėdami pamatyti stoties vardą.

Tada spustelėkite, norėdami matyti oro stebėjimo ir prognozės.

Norėdami pakeisti žemėlapį: spustelėkite ant žalios mygtukų su juodo kryžiaus žemyn,; žalią mygtuką su brūkšneliu, jei norite nutolinti; arba žalių rodyklių gretimoms žemėlapius.


METAR-TAF: